UATG/GUW METAR and TAF weather

Enter ICAO airport designator
Station Type Date Time Source
UATG METAR 2018/12/15 22:30 UTC NOAA

UATG 152230Z 23003MPS 2900 SHSN BR OVC030CB M02/M02 Q1023 R14/59//42 TEMPO 2000 SHSN BR BKN005 OVC020CB RMK QFE769/1025


Station Type Date Time Source
UATG Decoded METAR 2018/12/15 22:30 UTC NOAA

Station name not available
Dec 15, 2018 - 05:30 PM EST / 2018.12.15 2230 UTC
Wind: from the SW (230 degrees) at 7 MPH (6 KT):0
Visibility: 1 mile(s):0
Sky conditions: overcast
Weather: snow showers; mist; Cumulonimbus clouds observed
Temperature: 28 F (-2 C)
Windchill: 21 F (-6 C):1
Dew Point: 28 F (-2 C)
Relative Humidity: 100%
Pressure (altimeter): 30.21 in. Hg (1023 hPa)
ob: UATG 152230Z 23003MPS 2900 SHSN BR OVC030CB M02/M02 Q1023 R14/59//42 TEMPO 2000 SHSN BR BKN005 OVC020CB RMK QFE769/1025
cycle: 22

Station Type Date Time Source
UATG TAF 2018/12/15 18:18 UTC NOAA

TAF TAF UATG 151702Z 1518/1618 26005MPS 2000 SHSN BR BKN003 OVC020CB TXM01/1610Z TNM03/1603Z
TEMPO 1518/1606 0300 +SHSN FZFG BKN001 OVC010CB
FM160600 32005MPS 3000 -SHSN BR BKN005 OVC020CB


Example: see airport list